createdAt,value
2023-04-15T00:01:55.613Z,100835.00
2023-04-15T00:04:22.730Z,100868.00
2023-04-15T00:06:53.130Z,100849.00
2023-04-15T00:09:21.135Z,100859.00
2023-04-15T00:11:48.346Z,100864.00
2023-04-15T00:14:16.748Z,100871.00
2023-04-15T00:16:43.732Z,100850.00
2023-04-15T00:19:12.310Z,100871.00
2023-04-15T00:21:39.290Z,100856.00
2023-04-15T00:24:07.887Z,100838.00
2023-04-15T00:26:35.844Z,100848.00
2023-04-15T00:29:03.900Z,100853.00
2023-04-15T00:31:31.683Z,100868.00
2023-04-15T00:33:59.709Z,100873.00
2023-04-15T00:36:26.651Z,100867.00
2023-04-15T00:38:54.027Z,100850.00
2023-04-15T00:41:23.012Z,100849.00
2023-04-15T00:43:50.528Z,100846.00
2023-04-15T00:46:21.990Z,100887.00
2023-04-15T00:48:55.132Z,100860.00
2023-04-15T00:51:22.498Z,100866.00
2023-04-15T00:53:49.531Z,100848.00
2023-04-15T00:56:17.682Z,100858.00
2023-04-15T00:58:44.693Z,100836.00
2023-04-15T01:01:11.722Z,100858.00
2023-04-15T01:03:38.930Z,100832.00
2023-04-15T01:06:07.507Z,100845.00
2023-04-15T01:08:35.512Z,100837.00
2023-04-15T01:11:03.772Z,100833.00
2023-04-15T01:13:34.241Z,100851.00
2023-04-15T01:16:03.237Z,100859.00
2023-04-15T01:18:31.398Z,100850.00
2023-04-15T01:21:00.782Z,100866.00
2023-04-15T01:23:28.232Z,100868.00
2023-04-15T01:25:56.679Z,100868.00
2023-04-15T01:28:23.723Z,100866.00
2023-04-15T01:30:50.945Z,100844.00
2023-04-15T01:33:18.317Z,100863.00
2023-04-15T01:35:46.371Z,100874.00
2023-04-15T01:38:13.621Z,100857.00
2023-04-15T01:40:40.928Z,100865.00
2023-04-15T01:43:08.209Z,100846.00
2023-04-15T01:45:35.244Z,100884.00
2023-04-15T01:48:04.386Z,100861.00
2023-04-15T01:50:31.504Z,100869.00
2023-04-15T01:52:59.605Z,100863.00
2023-04-15T01:55:27.054Z,100885.00
2023-04-15T01:57:53.985Z,100876.00
2023-04-15T02:00:22.984Z,100875.00
2023-04-15T02:02:49.987Z,100866.00
2023-04-15T02:05:20.039Z,100878.00
2023-04-15T02:07:47.375Z,100873.00
2023-04-15T02:10:15.515Z,100899.00
2023-04-15T02:12:43.484Z,100899.00
2023-04-15T02:15:11.139Z,100883.00
2023-04-15T02:17:38.264Z,100903.00
2023-04-15T02:20:08.820Z,100873.00
2023-04-15T02:22:36.029Z,100880.00
2023-04-15T02:25:03.522Z,100894.00
2023-04-15T02:27:30.893Z,100901.00
2023-04-15T02:29:58.118Z,100898.00
2023-04-15T02:32:29.123Z,100894.00
2023-04-15T02:34:56.406Z,100914.00
2023-04-15T02:37:24.670Z,100904.00
2023-04-15T02:39:51.701Z,100897.00
2023-04-15T02:42:21.617Z,100895.00
2023-04-15T02:44:49.750Z,100918.00
2023-04-15T02:47:16.688Z,100914.00
2023-04-15T02:49:43.933Z,100913.00
2023-04-15T02:52:11.358Z,100898.00
2023-04-15T02:54:39.357Z,100916.00
2023-04-15T02:57:06.844Z,100933.00
2023-04-15T02:59:33.836Z,100912.00
2023-04-15T03:02:01.202Z,100920.00
2023-04-15T03:04:30.253Z,100918.00
2023-04-15T03:06:57.457Z,100917.00
2023-04-15T03:09:24.413Z,100906.00
2023-04-15T03:11:55.513Z,100923.00
2023-04-15T03:14:23.213Z,100922.00
2023-04-15T03:16:51.836Z,100906.00
2023-04-15T03:19:18.890Z,100914.00
2023-04-15T03:21:45.914Z,100945.00
2023-04-15T03:24:12.926Z,100924.00
2023-04-15T03:26:41.178Z,100932.00
2023-04-15T03:29:08.380Z,100935.00
2023-04-15T03:31:40.524Z,100933.00
2023-04-15T03:34:08.555Z,100937.00
2023-04-15T03:36:36.938Z,100945.00
2023-04-15T03:39:05.094Z,100936.00
2023-04-15T03:41:35.367Z,100945.00
2023-04-15T03:44:02.459Z,100956.00
2023-04-15T03:46:29.441Z,100945.00
2023-04-15T03:48:56.451Z,100971.00
2023-04-15T03:51:23.395Z,100968.00
2023-04-15T03:53:51.145Z,100969.00
2023-04-15T03:56:18.098Z,100953.00
2023-04-15T03:58:45.318Z,100979.00
2023-04-15T04:01:12.269Z,100981.00
2023-04-15T04:03:39.487Z,100965.00
2023-04-15T04:06:06.675Z,100961.00
2023-04-15T04:08:33.754Z,100988.00
2023-04-15T04:11:00.862Z,100988.00
2023-04-15T04:13:30.628Z,100985.00
2023-04-15T04:15:57.615Z,100964.00
2023-04-15T04:18:24.872Z,100979.00
2023-04-15T04:20:52.072Z,100970.00
2023-04-15T04:23:20.486Z,100991.00
2023-04-15T04:25:48.397Z,100969.00
2023-04-15T04:28:15.719Z,100980.00
2023-04-15T04:30:42.760Z,100991.00
2023-04-15T04:33:09.750Z,100980.00
2023-04-15T04:35:37.730Z,101015.00
2023-04-15T04:38:05.062Z,101017.00
2023-04-15T04:40:32.118Z,101020.00
2023-04-15T04:42:59.131Z,101012.00
2023-04-15T04:45:27.168Z,100996.00
2023-04-15T04:47:54.109Z,101015.00
2023-04-15T04:50:21.101Z,100997.00
2023-04-15T04:52:48.074Z,101022.00
2023-04-15T04:55:15.100Z,101024.00
2023-04-15T04:57:42.205Z,101046.00
2023-04-15T05:00:11.174Z,101020.00
2023-04-15T05:02:38.833Z,101034.00
2023-04-15T05:05:07.941Z,101021.00
2023-04-15T05:07:34.891Z,101041.00
2023-04-15T05:10:01.882Z,101022.00
2023-04-15T05:12:28.824Z,101036.00
2023-04-15T05:14:57.084Z,101024.00
2023-04-15T05:17:24.089Z,101052.00
2023-04-15T05:19:51.244Z,101062.00
2023-04-15T05:22:21.519Z,101045.00
2023-04-15T05:24:48.748Z,101034.00
2023-04-15T05:27:25.091Z,101045.00
2023-04-15T05:29:53.100Z,101048.00
2023-04-15T05:32:26.343Z,101041.00
2023-04-15T05:34:53.415Z,101029.00
2023-04-15T05:37:23.337Z,101064.00
2023-04-15T05:39:50.317Z,101021.00
2023-04-15T05:42:17.742Z,101065.00
2023-04-15T05:44:44.765Z,101052.00
2023-04-15T05:47:11.881Z,101044.00
2023-04-15T05:49:39.874Z,101074.00
2023-04-15T05:52:06.874Z,101064.00
2023-04-15T05:54:33.903Z,101071.00
2023-04-15T05:57:01.168Z,101066.00
2023-04-15T05:59:28.516Z,101082.00
2023-04-15T06:01:55.494Z,101074.00
2023-04-15T06:04:24.245Z,101089.00
2023-04-15T06:06:51.382Z,101083.00
2023-04-15T06:09:18.465Z,101107.00
2023-04-15T06:11:45.476Z,101112.00
2023-04-15T06:14:12.861Z,101112.00
2023-04-15T06:16:40.258Z,101110.00
2023-04-15T06:19:07.273Z,101127.00
2023-04-15T06:21:34.294Z,101118.00
2023-04-15T06:24:03.872Z,101128.00
2023-04-15T06:26:31.233Z,101145.00
2023-04-15T06:28:58.348Z,101126.00
2023-04-15T06:31:25.626Z,101153.00
2023-04-15T06:33:53.630Z,101132.00
2023-04-15T06:36:23.488Z,101166.00
2023-04-15T06:38:50.518Z,101135.00
2023-04-15T06:41:18.823Z,101144.00
2023-04-15T06:43:45.886Z,101170.00
2023-04-15T06:46:13.149Z,101164.00
2023-04-15T06:48:41.422Z,101175.00
2023-04-15T06:51:08.948Z,101176.00
2023-04-15T06:53:40.865Z,101184.00
2023-04-15T06:56:10.623Z,101184.00
2023-04-15T06:58:37.682Z,101182.00
2023-04-15T07:01:08.960Z,101202.00
2023-04-15T07:03:36.051Z,101190.00
2023-04-15T07:06:09.076Z,101188.00
2023-04-15T07:08:36.108Z,101200.00
2023-04-15T07:11:04.371Z,101184.00
2023-04-15T07:13:32.462Z,101204.00
2023-04-15T07:15:59.623Z,101193.00
2023-04-15T07:18:27.895Z,101198.00
2023-04-15T07:20:55.229Z,101198.00
2023-04-15T07:23:36.786Z,101194.00
2023-04-15T07:26:05.059Z,101204.00
2023-04-15T07:28:32.397Z,101197.00
2023-04-15T07:31:00.756Z,101196.00
2023-04-15T07:33:30.245Z,101206.00
2023-04-15T07:35:57.433Z,101203.00
2023-04-15T07:38:27.144Z,101228.00
2023-04-15T07:40:54.273Z,101207.00
2023-04-15T07:43:22.789Z,101217.00
2023-04-15T07:45:52.050Z,101208.00
2023-04-15T07:48:19.199Z,101234.00
2023-04-15T07:50:49.435Z,101222.00
2023-04-15T07:53:16.410Z,101229.00
2023-04-15T07:55:44.784Z,101211.00
2023-04-15T07:58:13.748Z,101236.00
2023-04-15T08:00:44.214Z,101231.00
2023-04-15T08:03:16.686Z,101224.00
2023-04-15T08:05:46.063Z,101239.00
2023-04-15T08:08:21.376Z,101239.00
2023-04-15T08:10:52.843Z,101255.00
2023-04-15T08:13:23.039Z,101235.00
2023-04-15T08:16:14.734Z,101260.00
2023-04-15T08:18:41.846Z,101237.00
2023-04-15T08:21:10.720Z,101243.00
2023-04-15T08:23:39.110Z,101259.00
2023-04-15T08:26:06.275Z,101240.00
2023-04-15T08:28:34.956Z,101264.00
2023-04-15T08:31:02.906Z,101258.00
2023-04-15T08:33:31.116Z,101260.00
2023-04-15T08:38:39.688Z,101260.00
2023-04-15T08:41:18.846Z,101272.00
2023-04-15T08:43:57.034Z,101265.00
2023-04-15T08:46:24.269Z,101275.00
2023-04-15T08:48:57.474Z,101279.00
2023-04-15T08:51:25.302Z,101271.00
2023-04-15T08:53:54.364Z,101285.00
2023-04-15T08:56:24.814Z,101286.00
2023-04-15T08:58:55.189Z,101283.00
2023-04-15T09:01:23.150Z,101316.00
2023-04-15T09:03:54.730Z,101296.00
2023-04-15T09:06:23.130Z,101286.00
2023-04-15T09:08:50.676Z,101282.00
2023-04-15T09:11:19.970Z,101306.00
2023-04-15T09:13:47.243Z,101295.00
2023-04-15T09:16:14.463Z,101299.00
2023-04-15T09:18:41.821Z,101315.00
2023-04-15T09:21:14.160Z,101305.00
2023-04-15T09:23:54.196Z,101301.00
2023-04-15T09:26:30.833Z,101306.00
2023-04-15T09:29:09.457Z,101319.00
2023-04-15T09:31:37.260Z,101303.00
2023-04-15T09:34:04.489Z,101333.00
2023-04-15T09:36:57.940Z,101331.00
2023-04-15T09:39:27.512Z,101316.00
2023-04-15T09:42:06.949Z,101324.00
2023-04-15T09:44:34.195Z,101337.00
2023-04-15T09:47:02.982Z,101334.00
2023-04-15T09:49:30.176Z,101329.00
2023-04-15T09:52:05.752Z,101341.00
2023-04-15T09:54:35.861Z,101355.00
2023-04-15T09:57:10.642Z,101366.00
2023-04-15T09:59:39.902Z,101340.00
2023-04-15T10:02:09.765Z,101351.00
2023-04-15T10:04:40.755Z,101351.00
2023-04-15T10:07:09.586Z,101344.00
2023-04-15T10:09:37.260Z,101351.00
2023-04-15T10:12:12.099Z,101363.00
2023-04-15T10:14:45.163Z,101359.00
2023-04-15T10:17:13.107Z,101378.00
2023-04-15T10:19:41.710Z,101363.00
2023-04-15T10:22:12.243Z,101343.00
2023-04-15T10:24:41.572Z,101352.00
2023-04-15T10:27:09.082Z,101360.00
2023-04-15T10:29:37.669Z,101379.00
2023-04-15T10:32:11.625Z,101348.00
2023-04-15T10:34:38.776Z,101374.00
2023-04-15T10:37:06.087Z,101362.00
2023-04-15T10:39:33.146Z,101390.00
2023-04-15T10:42:15.521Z,101368.00
2023-04-15T10:44:52.580Z,101380.00
2023-04-15T10:47:21.992Z,101370.00
2023-04-15T10:49:51.626Z,101387.00
2023-04-15T10:52:24.464Z,101374.00
2023-04-15T10:55:07.661Z,101370.00
2023-04-15T10:57:36.344Z,101386.00
2023-04-15T11:00:14.717Z,101388.00
2023-04-15T11:02:53.805Z,101393.00
2023-04-15T11:05:21.831Z,101387.00
2023-04-15T11:07:55.052Z,101390.00
2023-04-15T11:10:31.354Z,101398.00
2023-04-15T11:13:06.292Z,101407.00
2023-04-15T11:15:37.913Z,101403.00
2023-04-15T11:18:17.106Z,101393.00
2023-04-15T11:20:53.723Z,101395.00
2023-04-15T11:23:31.658Z,101412.00
2023-04-15T11:26:01.013Z,101413.00
2023-04-15T11:28:29.956Z,101403.00
2023-04-15T11:30:57.856Z,101407.00
2023-04-15T11:33:25.921Z,101410.00
2023-04-15T11:35:55.200Z,101428.00
2023-04-15T11:38:22.609Z,101422.00
2023-04-15T11:40:50.634Z,101423.00
2023-04-15T11:43:23.010Z,101429.00
2023-04-15T11:45:57.923Z,101426.00
2023-04-15T11:48:27.768Z,101439.00
2023-04-15T11:50:59.511Z,101435.00
2023-04-15T11:53:44.404Z,101420.00
2023-04-15T11:56:32.882Z,101434.00
2023-04-15T11:59:00.165Z,101422.00
2023-04-15T12:01:39.722Z,101414.00
2023-04-15T12:04:17.321Z,101437.00
2023-04-15T12:06:44.859Z,101431.00
2023-04-15T12:09:17.208Z,101432.00
2023-04-15T12:11:51.809Z,101443.00
2023-04-15T12:14:24.770Z,101432.00
2023-04-15T12:16:54.592Z,101474.00
2023-04-15T12:19:27.671Z,101465.00
2023-04-15T12:22:02.510Z,101456.00
2023-04-15T12:24:31.894Z,101457.00
2023-04-15T12:27:04.139Z,101449.00
2023-04-15T12:29:32.064Z,101462.00
2023-04-15T12:32:05.221Z,101479.00
2023-04-15T12:34:34.148Z,101485.00
2023-04-15T12:37:03.689Z,101481.00
2023-04-15T12:39:32.715Z,101469.00
2023-04-15T12:42:00.512Z,101493.00
2023-04-15T12:44:28.580Z,101488.00
2023-04-15T12:46:55.957Z,101483.00
2023-04-15T12:49:24.336Z,101487.00
2023-04-15T12:51:57.437Z,101508.00
2023-04-15T12:54:24.431Z,101496.00
2023-04-15T12:56:52.768Z,101496.00
2023-04-15T12:59:20.296Z,101510.00
2023-04-15T13:01:48.820Z,101483.00
2023-04-15T13:04:17.285Z,101517.00
2023-04-15T13:06:44.384Z,101512.00
2023-04-15T13:09:14.027Z,101508.00
2023-04-15T13:11:41.415Z,101521.00
2023-04-15T13:14:09.648Z,101536.00
2023-04-15T13:16:36.920Z,101523.00
2023-04-15T13:19:04.167Z,101529.00
2023-04-15T13:21:35.164Z,101525.00
2023-04-15T13:24:04.835Z,101526.00
2023-04-15T13:26:32.236Z,101527.00
2023-04-15T13:29:00.029Z,101552.00
2023-04-15T13:31:27.312Z,101531.00
2023-04-15T13:33:57.640Z,101547.00
2023-04-15T13:36:26.397Z,101524.00
2023-04-15T13:38:53.848Z,101555.00
2023-04-15T13:41:22.852Z,101535.00
2023-04-15T13:43:49.882Z,101540.00
2023-04-15T13:46:17.227Z,101565.00
2023-04-15T13:48:44.314Z,101553.00
2023-04-15T13:51:12.826Z,101571.00
2023-04-15T13:53:40.056Z,101561.00
2023-04-15T13:56:08.609Z,101546.00
2023-04-15T13:58:37.650Z,101566.00
2023-04-15T14:01:06.945Z,101569.00
2023-04-15T14:03:38.016Z,101568.00
2023-04-15T14:06:06.305Z,101554.00
2023-04-15T14:08:33.618Z,101567.00
2023-04-15T14:11:00.863Z,101566.00
2023-04-15T14:13:27.929Z,101592.00
2023-04-15T14:15:54.901Z,101587.00
2023-04-15T14:18:22.426Z,101595.00
2023-04-15T14:20:49.544Z,101603.00
2023-04-15T14:23:16.636Z,101601.00
2023-04-15T14:25:46.064Z,101605.00
2023-04-15T14:28:14.783Z,101576.00
2023-04-15T14:30:42.124Z,101596.00
2023-04-15T14:33:09.173Z,101609.00
2023-04-15T14:35:36.539Z,101594.00
2023-04-15T14:38:06.641Z,101604.00
2023-04-15T14:40:33.789Z,101623.00
2023-04-15T14:43:00.753Z,101623.00
2023-04-15T14:45:27.801Z,101626.00
2023-04-15T14:47:54.946Z,101612.00
2023-04-15T14:50:23.210Z,101630.00
2023-04-15T14:52:50.214Z,101625.00
2023-04-15T14:55:17.247Z,101632.00
2023-04-15T14:57:45.188Z,101631.00
2023-04-15T15:00:15.832Z,101631.00
2023-04-15T15:02:44.059Z,101634.00
2023-04-15T15:05:12.472Z,101635.00
2023-04-15T15:07:40.885Z,101635.00
2023-04-15T15:10:08.243Z,101661.00
2023-04-15T15:12:37.697Z,101626.00
2023-04-15T15:15:25.153Z,101652.00
2023-04-15T15:17:56.010Z,101644.00
2023-04-15T15:20:25.741Z,101672.00
2023-04-15T15:22:52.789Z,101664.00
2023-04-15T15:25:21.053Z,101656.00
2023-04-15T15:27:48.940Z,101647.00
2023-04-15T15:30:15.975Z,101662.00
2023-04-15T15:32:49.180Z,101678.00
2023-04-15T15:35:16.960Z,101671.00
2023-04-15T15:37:45.364Z,101676.00
2023-04-15T15:40:19.262Z,101702.00
2023-04-15T15:42:47.539Z,101702.00
2023-04-15T15:45:14.576Z,101689.00
2023-04-15T15:47:44.703Z,101684.00
2023-04-15T15:50:13.784Z,101704.00
2023-04-15T15:52:40.963Z,101701.00
2023-04-15T15:55:09.557Z,101706.00
2023-04-15T15:57:37.777Z,101707.00
2023-04-15T16:00:13.804Z,101713.00
2023-04-15T16:05:12.775Z,101704.00
2023-04-15T16:07:39.921Z,101721.00
2023-04-15T16:10:07.595Z,101712.00
2023-04-15T16:12:35.891Z,101685.00
2023-04-15T16:15:04.376Z,101702.00
2023-04-15T16:17:32.567Z,101729.00
2023-04-15T16:20:02.024Z,101730.00
2023-04-15T16:22:30.396Z,101716.00
2023-04-15T16:24:58.810Z,101699.00
2023-04-15T16:27:26.336Z,101731.00
2023-04-15T16:29:54.317Z,101723.00
2023-04-15T16:32:21.537Z,101739.00
2023-04-15T16:34:49.406Z,101730.00
2023-04-15T16:37:16.843Z,101721.00
2023-04-15T16:39:48.546Z,101729.00
2023-04-15T16:42:16.412Z,101728.00
2023-04-15T16:44:43.529Z,101723.00
2023-04-15T16:47:13.793Z,101727.00
2023-04-15T16:49:40.736Z,101729.00
2023-04-15T16:52:07.867Z,101734.00
2023-04-15T16:54:40.614Z,101760.00
2023-04-15T16:57:08.703Z,101736.00
2023-04-15T16:59:36.532Z,101764.00
2023-04-15T17:02:03.954Z,101760.00
2023-04-15T17:04:32.748Z,101755.00
2023-04-15T17:07:02.549Z,101756.00
2023-04-15T17:09:29.808Z,101746.00
2023-04-15T17:11:58.955Z,101722.00
2023-04-15T17:14:29.009Z,101773.00
2023-04-15T17:17:05.173Z,101760.00
2023-04-15T17:19:35.133Z,101761.00
2023-04-15T17:22:05.317Z,101773.00
2023-04-15T17:24:32.622Z,101760.00
2023-04-15T17:27:00.327Z,101767.00
2023-04-15T17:29:28.785Z,101788.00
2023-04-15T17:31:56.332Z,101785.00
2023-04-15T17:34:23.375Z,101767.00
2023-04-15T17:36:54.058Z,101790.00
2023-04-15T17:39:26.813Z,101800.00
2023-04-15T17:41:57.879Z,101783.00
2023-04-15T17:44:25.456Z,101789.00
2023-04-15T17:46:54.336Z,101773.00
2023-04-15T17:49:22.192Z,101778.00
2023-04-15T17:51:49.445Z,101785.00
2023-04-15T17:54:17.821Z,101787.00
2023-04-15T17:56:45.932Z,101803.00
2023-04-15T17:59:13.434Z,101798.00
2023-04-15T18:01:43.342Z,101820.00
2023-04-15T18:04:14.033Z,101786.00
2023-04-15T18:06:41.267Z,101796.00
2023-04-15T18:09:09.728Z,101798.00
2023-04-15T18:11:37.423Z,101805.00
2023-04-15T18:14:06.167Z,101821.00
2023-04-15T18:16:33.420Z,101840.00
2023-04-15T18:19:01.399Z,101818.00
2023-04-15T18:21:29.706Z,101841.00
2023-04-15T18:23:59.380Z,101835.00
2023-04-15T18:26:27.853Z,101850.00
2023-04-15T18:28:56.902Z,101842.00
2023-04-15T18:31:24.794Z,101864.00
2023-04-15T18:33:53.180Z,101848.00
2023-04-15T18:36:20.302Z,101851.00
2023-04-15T18:38:47.853Z,101865.00
2023-04-15T18:41:15.171Z,101836.00
2023-04-15T18:43:42.289Z,101851.00
2023-04-15T18:46:12.542Z,101842.00
2023-04-15T18:48:40.127Z,101865.00
2023-04-15T18:51:11.017Z,101878.00
2023-04-15T18:53:39.105Z,101881.00
2023-04-15T18:56:07.075Z,101876.00
2023-04-15T18:59:08.799Z,101885.00
2023-04-15T19:01:26.576Z,101887.00
2023-04-15T19:03:53.894Z,101900.00
2023-04-15T19:06:22.493Z,101895.00
2023-04-15T19:08:50.091Z,101890.00
2023-04-15T19:11:18.474Z,101899.00
2023-04-15T19:13:45.942Z,101926.00
2023-04-15T19:16:12.940Z,101926.00
2023-04-15T19:18:41.204Z,101885.00
2023-04-15T19:21:10.502Z,101919.00
2023-04-15T19:23:37.623Z,101905.00
2023-04-15T19:26:04.698Z,101913.00
2023-04-15T19:28:31.613Z,101920.00
2023-04-15T19:30:58.605Z,101903.00
2023-04-15T19:33:31.349Z,101908.00
2023-04-15T19:36:04.380Z,101910.00
2023-04-15T19:38:32.981Z,101924.00
2023-04-15T19:41:00.019Z,101916.00
2023-04-15T19:43:27.770Z,101914.00
2023-04-15T19:45:55.132Z,101926.00
2023-04-15T19:48:24.883Z,101945.00
2023-04-15T19:50:51.943Z,101918.00
2023-04-15T19:53:18.988Z,101941.00
2023-04-15T19:55:48.519Z,101921.00
2023-04-15T19:58:16.235Z,101898.00
2023-04-15T20:00:46.056Z,101894.00
2023-04-15T20:03:14.181Z,101917.00
2023-04-15T20:05:41.910Z,101911.00
2023-04-15T20:08:09.270Z,101906.00
2023-04-15T20:10:37.288Z,101916.00
2023-04-15T20:13:04.642Z,101930.00
2023-04-15T20:15:31.640Z,101893.00
2023-04-15T20:17:58.721Z,101916.00
2023-04-15T20:20:26.441Z,101913.00
2023-04-15T20:22:53.512Z,101903.00
2023-04-15T20:25:20.505Z,101896.00
2023-04-15T20:27:47.734Z,101919.00
2023-04-15T20:30:15.766Z,101936.00
2023-04-15T20:32:44.655Z,101920.00
2023-04-15T20:35:11.842Z,101924.00
2023-04-15T20:37:40.505Z,101918.00
2023-04-15T20:40:10.076Z,101917.00
2023-04-15T20:42:37.139Z,101919.00
2023-04-15T20:45:04.495Z,101918.00
2023-04-15T20:47:31.587Z,101938.00
2023-04-15T20:49:58.562Z,101939.00
2023-04-15T20:52:26.052Z,101941.00
2023-04-15T20:54:54.924Z,101937.00
2023-04-15T20:57:27.541Z,101935.00
2023-04-15T20:59:57.839Z,101938.00
2023-04-15T21:02:25.348Z,101926.00
2023-04-15T21:04:52.880Z,101947.00
2023-04-15T21:07:21.055Z,101933.00
2023-04-15T21:09:49.524Z,101931.00
2023-04-15T21:12:16.579Z,101942.00
2023-04-15T21:14:44.164Z,101919.00
2023-04-15T21:17:12.946Z,101958.00
2023-04-15T21:19:40.607Z,101941.00
2023-04-15T21:22:08.319Z,101949.00
2023-04-15T21:24:36.388Z,101949.00
2023-04-15T21:27:03.657Z,101963.00
2023-04-15T21:29:33.107Z,101980.00
2023-04-15T21:32:00.411Z,101983.00
2023-04-15T21:34:28.018Z,101932.00
2023-04-15T21:36:55.555Z,101952.00
2023-04-15T21:39:23.339Z,101983.00
2023-04-15T21:41:51.307Z,101978.00
2023-04-15T21:44:18.675Z,101951.00
2023-04-15T21:46:46.244Z,101978.00
2023-04-15T21:49:14.073Z,101977.00
2023-04-15T21:51:42.147Z,101990.00
2023-04-15T21:54:09.436Z,101968.00
2023-04-15T21:56:37.918Z,101976.00
2023-04-15T21:59:05.141Z,101968.00
2023-04-15T22:01:32.419Z,101992.00
2023-04-15T22:04:00.446Z,101988.00
2023-04-15T22:06:27.824Z,101985.00
2023-04-15T22:09:10.652Z,101999.00
2023-04-15T22:11:46.753Z,101999.00
2023-04-15T22:14:17.171Z,101998.00
2023-04-15T22:16:45.329Z,102002.00
2023-04-15T22:19:12.445Z,101999.00
2023-04-15T22:21:39.447Z,102004.00
2023-04-15T22:24:33.584Z,101976.00
2023-04-15T22:26:53.835Z,101976.00
2023-04-15T22:29:21.595Z,101965.00
2023-04-15T22:31:49.091Z,101996.00
2023-04-15T22:34:21.579Z,101968.00
2023-04-15T22:36:49.374Z,101998.00
2023-04-15T22:39:17.058Z,102010.00
2023-04-15T22:41:44.828Z,102011.00
2023-04-15T22:44:12.079Z,101984.00
2023-04-15T22:46:39.527Z,102010.00
2023-04-15T22:49:09.313Z,102009.00
2023-04-15T22:51:36.724Z,102021.00
2023-04-15T22:54:04.041Z,101993.00
2023-04-15T22:56:32.822Z,102022.00
2023-04-15T22:59:00.030Z,102000.00
2023-04-15T23:01:27.260Z,102017.00
2023-04-15T23:03:56.691Z,101999.00
2023-04-15T23:06:31.856Z,101999.00
2023-04-15T23:09:00.172Z,101986.00
2023-04-15T23:11:28.485Z,102032.00
2023-04-15T23:13:55.847Z,102006.00
2023-04-15T23:16:23.115Z,102017.00
2023-04-15T23:21:34.064Z,102002.00
2023-04-15T23:24:01.393Z,101996.00
2023-04-15T23:26:28.653Z,102035.00
2023-04-15T23:28:56.334Z,102016.00
2023-04-15T23:31:23.454Z,102031.00
2023-04-15T23:33:51.457Z,102022.00
2023-04-15T23:36:19.405Z,102035.00
2023-04-15T23:38:46.742Z,102040.00
2023-04-15T23:41:14.095Z,102006.00
2023-04-15T23:43:44.159Z,102014.00
2023-04-15T23:46:15.055Z,102038.00
2023-04-15T23:48:42.576Z,102051.00
2023-04-15T23:51:10.119Z,102014.00
2023-04-15T23:53:59.085Z,102056.00
2023-04-15T23:56:48.522Z,102012.00
2023-04-15T23:59:17.162Z,102033.00
